Latest Weather Observations for Burketown Airport

IDQ60801

Issued at 4:35 pm EST Saturday 19 April 2014 (issued every 30 minutes, with the page automatically refreshed every 10 minutes)

About weather observations | Map of weather stations | Latest weather observations for QLD | Other Formats
Station Details ID: 029077 Name: BURKETOWN AIRPORT Lat: -17.75 Lon: 139.54 Height: 5.7 m
Data from the previous 72 hours. | See also: Recent months at Burketown Airport
Date/Time
EST
Temp
°C
App
Temp
°C
Dew
Point
Rel
Hum
%
Delta-T
°C
Wind Press
QNH
hPa
Press
MSL
hPa
Rain
since 9 am
mm
Dir
 
Spd
km/h
Gust
km/h
Spd
kts
Gust
kts
19/04:30pm 27.3 31.5 23.5 80 2.6 NW 7 11 4 6 1010.8 - 26.8
19/04:00pm 26.5 29.6 23.6 84 2.0 WNW 13 17 7 9 1010.8 - 26.8
19/03:30pm 26.8 31.3 24.6 88 1.5 ENE 9 17 5 9 1011.0 - 26.8
19/03:00pm 24.3 26.6 22.7 91 1.1 N 15 32 8 17 1011.1 1011.0 26.6
19/02:43pm 23.3 21.1 21.4 89 1.3 ENE 35 56 19 30 1011.1 - 26.2
19/02:30pm 25.6 27.9 24.4 93 0.8 NNE 20 28 11 15 1011.8 - 4.2
19/02:05pm 25.0 24.5 22.1 84 1.9 NNW 28 46 15 25 1011.6 - 0.4
19/02:00pm 27.6 28.4 22.5 74 3.4 NNW 22 32 12 17 1011.6 - 0.0
19/01:30pm 31.2 32.1 19.2 48 7.8 SE 13 20 7 11 1011.7 - 0.0
19/01:00pm 32.4 32.9 19.3 46 8.6 E 15 24 8 13 1012.2 - 0.0
19/12:30pm 32.0 31.2 17.1 41 9.5 SE 17 24 9 13 1012.7 - 0.0
19/12:00pm 31.1 29.3 15.5 39 9.7 ESE 19 26 10 14 1013.1 1013.0 0.0
19/11:30am 30.9 28.3 13.7 35 10.3 SE 20 26 11 14 1013.5 - 0.0
19/11:00am 30.3 27.1 13.1 34 10.2 SE 22 32 12 17 1013.7 - 0.0
19/10:30am 29.6 24.8 11.6 33 10.4 SE 28 33 15 18 1014.0 - 0.0
19/10:00am 28.8 23.3 9.0 29 10.9 SE 28 37 15 20 1014.1 - 0.0
19/09:30am 27.4 22.3 7.8 29 10.5 SSE 24 35 13 19 1013.9 - 0.0
19/09:00am 25.8 20.9 6.9 30 9.9 SSE 22 32 12 17 1013.9 1013.8 0.0
19/08:30am 25.1 20.0 7.7 33 9.2 SSE 24 35 13 19 1013.6 - 0.0
19/08:00am 22.9 19.4 8.6 40 7.6 SE 17 24 9 13 1013.5 - 0.0
19/07:30am 22.2 18.4 9.0 43 7.0 SSE 19 22 10 12 1013.2 - 0.0
19/07:00am 20.9 18.8 12.3 58 4.8 S 15 17 8 9 1012.7 - 0.0
19/06:30am 21.4 20.4 15.5 69 3.5 S 15 19 8 10 1012.6 - 0.0
19/06:00am 22.3 21.9 18.1 77 2.6 SSE 17 20 9 11 1012.3 1012.2 0.0
19/05:30am 23.5 26.9 23.3 99 0.1 S 11 17 6 9 1012.4 - 0.0
19/05:00am 24.0 27.6 23.7 98 0.2 S 11 13 6 7 1012.4 - 0.0
19/04:30am 24.2 27.9 23.9 98 0.2 S 11 13 6 7 1012.1 - 0.0
19/04:00am 24.3 27.7 24.0 98 0.2 S 13 15 7 8 1011.9 - 0.0
19/03:30am 24.5 28.8 24.3 99 0.1 SSW 9 11 5 6 1011.8 - 0.0
19/03:00am 23.8 27.3 23.6 99 0.1 SW 11 13 6 7 1011.8 1011.7 0.0
19/02:30am 23.9 27.6 23.2 96 0.5 WSW 9 11 5 6 1012.0 - 0.0
19/02:00am 24.5 28.4 23.6 95 0.6 SW 9 11 5 6 1012.3 - 0.0
19/01:30am 24.7 28.2 23.5 93 0.8 SSW 11 11 6 6 1012.6 - 0.0
19/01:00am 24.8 30.4 23.6 93 0.8 CALM 0 7 0 4 1013.1 - 0.0
19/12:30am 25.3 29.8 24.6 96 0.5 SE 9 11 5 6 1013.6 - 0.0
19/12:00am 25.6 30.7 24.7 95 0.6 E 6 7 3 4 1013.7 1013.6 0.0
 
Date/Time
EST
Temp
°C
App
Temp
°C
Dew
Point
Rel
Hum
%
Delta-T
°C
Wind Press
QNH
hPa
Press
MSL
hPa
Rain
since 9 am
mm
Dir
 
Spd
km/h
Gust
km/h
Spd
kts
Gust
kts
18/11:30pm 25.5 30.5 24.8 96 0.5 N 7 9 4 5 1013.7 - 0.0
18/11:00pm 26.0 31.9 25.3 96 0.5 E 4 9 2 5 1013.9 - 0.0
18/10:30pm 25.6 30.1 24.6 94 0.7 NW 9 9 5 5 1013.8 - 0.0
18/10:00pm 26.1 30.7 24.7 92 1.0 NNW 9 11 5 6 1013.8 - 0.0
18/09:30pm 26.5 30.9 24.5 89 1.4 NNE 9 11 5 6 1014.0 - 0.0
18/09:00pm 26.8 31.4 24.8 89 1.4 E 9 11 5 6 1013.9 1013.8 0.0
18/08:30pm 27.0 32.1 25.0 89 1.4 E 7 9 4 5 1013.5 - 0.0
18/08:00pm 26.8 30.9 24.6 88 1.5 NNW 11 13 6 7 1012.8 - 0.0
18/07:30pm 26.9 31.0 24.5 87 1.7 NNW 11 13 6 7 1012.3 - 0.0
18/07:00pm 27.4 31.0 23.8 81 2.5 N 11 13 6 7 1012.0 - 0.0
18/06:30pm 28.2 31.6 23.3 75 3.4 NNW 11 13 6 7 1011.7 - 0.0
18/06:00pm 29.4 32.3 22.4 66 4.8 N 11 13 6 7 1011.5 1011.4 0.0
18/05:30pm 31.3 32.8 22.0 57 6.3 N 17 22 9 12 1011.3 - 0.0
18/05:00pm 31.5 33.5 22.2 57 6.3 NNE 15 22 8 12 1011.1 - 0.0
18/04:30pm 32.7 35.0 22.8 56 6.8 N 15 20 8 11 1011.0 - 0.0
18/04:00pm 31.8 33.8 22.2 56 6.5 N 15 19 8 10 1010.9 - 0.0
18/03:30pm 32.9 35.3 23.0 56 6.8 N 15 20 8 11 1011.0 - 0.0
18/03:00pm 33.6 36.4 23.6 56 7.0 NE 15 26 8 14 1011.0 1010.9 0.0
18/02:30pm 33.0 35.0 23.0 55 6.9 NE 17 24 9 13 1011.2 - 0.0
18/02:00pm 32.6 34.5 23.5 58 6.3 NNE 19 24 10 13 1011.6 - 0.0
18/01:30pm 32.1 34.1 22.2 56 6.7 NE 15 24 8 13 1011.8 - 0.0
18/01:00pm 32.9 33.4 20.8 49 8.1 NNE 19 22 10 12 1012.3 - 0.0
18/12:30pm 33.7 33.5 18.6 40 9.8 ENE 17 24 9 13 1012.7 - 0.0
18/12:00pm 32.9 32.0 15.8 35 10.7 ESE 15 24 8 13 1013.0 1012.9 0.0
18/11:30am 31.9 29.4 14.1 34 10.8 SE 20 28 11 15 1013.4 - 0.0
18/11:00am 31.6 29.0 13.8 34 10.8 SE 20 28 11 15 1013.6 - 0.0
18/10:30am 30.4 26.6 12.3 33 10.6 SE 24 32 13 17 1013.8 - 0.0
18/10:00am 29.3 25.0 13.1 37 9.6 SE 28 35 15 19 1013.9 - 0.0
18/09:30am 28.1 23.1 10.8 34 9.8 SE 28 39 15 21 1013.6 - 0.0
18/09:00am 27.0 23.5 12.3 40 8.5 SSE 22 30 12 16 1013.6 1013.5 33.2
18/08:30am 26.0 22.9 11.7 41 8.2 SSE 19 26 10 14 1013.4 - 33.2
18/08:00am 24.6 21.2 12.5 46 6.9 S 22 28 12 15 1012.8 - 33.2
18/07:30am 23.5 21.1 13.9 55 5.6 S 19 22 10 12 1012.5 - 33.2
18/07:00am 23.4 22.0 16.9 67 4.0 S 20 24 11 13 1012.2 - 33.2
18/06:30am 22.5 22.6 18.3 77 2.6 SSW 15 17 8 9 1012.2 - 33.2
18/06:00am 24.2 23.5 17.4 65 4.2 S 17 24 9 13 1012.2 1012.1 33.2
18/05:30am 24.2 25.3 21.3 84 1.9 SSW 17 20 9 11 1012.2 - 33.2
18/05:00am 24.4 26.3 22.7 90 1.1 S 17 20 9 11 1012.1 - 33.2
18/04:30am 25.1 27.5 23.0 88 1.4 S 15 20 8 11 1011.7 - 33.2
18/04:00am 25.2 28.6 23.3 89 1.3 S 11 13 6 7 1011.6 - 33.2
18/03:30am 25.6 28.0 21.5 78 2.7 S 11 13 6 7 1011.5 - 33.2
18/03:00am 26.1 28.3 20.4 71 3.7 SSE 9 11 5 6 1011.4 1011.3 33.2
18/02:30am 26.2 25.7 19.1 65 4.6 ESE 20 28 11 15 1011.5 - 33.2
18/02:00am 24.7 26.3 22.8 89 1.3 NE 19 26 10 14 1012.2 - 33.2
18/01:30am 24.9 25.5 23.5 92 1.0 ENE 26 39 14 21 1012.2 - 32.8
18/01:03am 24.1 24.1 22.4 90 1.1 NE 26 54 14 29 1012.4 - 32.8
18/01:00am 24.2 21.8 22.5 90 1.1 E 39 57 21 31 1012.6 - 32.8
18/12:51am 24.9 22.2 22.0 84 1.9 E 39 57 21 31 1012.6 - 32.8
18/12:49am 25.2 22.8 21.9 82 2.2 E 37 48 20 26 1012.8 - 32.8
18/12:30am 26.2 27.0 21.8 77 2.9 ESE 20 35 11 19 1012.8 - 32.8
18/12:00am 26.0 27.6 22.9 83 2.1 ESE 19 26 10 14 1012.8 1012.7 32.8
 
Date/Time
EST
Temp
°C
App
Temp
°C
Dew
Point
Rel
Hum
%
Delta-T
°C
Wind Press
QNH
hPa
Press
MSL
hPa
Rain
since 9 am
mm
Dir
 
Spd
km/h
Gust
km/h
Spd
kts
Gust
kts
17/11:30pm 23.5 24.5 21.8 90 1.1 NW 19 33 10 18 1013.4 - 32.6
17/11:10pm 23.1 25.8 22.1 94 0.7 E 11 57 6 31 1014.5 - 19.4
17/11:01pm 23.6 21.4 22.2 92 0.9 SE 37 57 20 31 1014.7 - 8.0
17/11:00pm 24.1 22.8 23.1 94 0.7 SE 35 52 19 28 1014.7 - 7.6
17/10:42pm 26.0 26.0 23.1 84 2.0 S 28 37 15 20 1013.7 - 0.0
17/10:30pm 26.5 31.2 24.3 88 1.5 NW 7 9 4 5 1013.1 - 0.0
17/10:00pm 26.0 30.1 23.9 88 1.4 WNW 9 11 5 6 1013.1 - 0.0
17/09:30pm 26.2 30.4 23.5 85 1.8 NNW 7 9 4 5 1013.0 - 0.0
17/09:00pm 26.3 30.4 23.2 83 2.1 NW 7 9 4 5 1012.8 1012.7 0.0
17/08:30pm 26.8 30.4 23.1 80 2.5 N 9 9 5 5 1012.6 - 0.0
17/08:00pm 27.0 30.5 22.8 78 2.8 NNW 9 11 5 6 1012.1 - 0.0
17/07:30pm 27.6 30.5 22.5 74 3.4 N 11 13 6 7 1011.7 - 0.0
17/07:00pm 28.4 31.1 22.2 69 4.2 N 11 13 6 7 1011.4 - 0.0
17/06:30pm 29.4 31.5 22.4 66 4.7 N 15 17 8 9 1011.3 - 0.0
17/06:00pm 30.5 32.3 21.8 59 5.9 N 15 20 8 11 1010.9 1010.8 0.0
17/05:30pm 31.6 34.0 22.3 57 6.3 N 13 17 7 9 1010.7 - 0.0
17/05:00pm 31.5 33.5 22.2 57 6.3 N 15 20 8 11 1010.5 - 0.0
17/04:30pm 32.8 35.4 22.0 53 7.4 E 11 19 6 10 1010.4 - 0.0
17/04:00pm 33.4 35.2 21.9 51 7.8 NE 15 24 8 13 1010.3 - 0.0
17/03:30pm 34.1 35.7 22.8 51 7.8 NE 19 28 10 15 1010.5 - 0.0
17/03:00pm 33.8 36.8 22.6 52 7.7 NE 11 20 6 11 1010.7 1010.6 0.0
17/02:30pm 34.4 36.0 22.1 48 8.4 E 17 28 9 15 1011.0 - 0.0
17/02:00pm 33.9 36.7 23.0 53 7.5 E 13 20 7 11 1011.3 - 0.0
17/01:30pm 32.4 34.7 22.8 57 6.6 E 15 22 8 12 1011.8 - 0.0
17/01:00pm 31.8 33.4 22.2 56 6.5 NE 17 32 9 17 1012.4 - 0.0
17/12:30pm 33.7 34.5 22.5 52 7.7 ENE 22 28 12 15 1012.9 - 0.0
17/12:00pm 32.1 33.8 21.6 53 7.1 E 15 22 8 12 1013.3 1013.2 0.0
17/11:30am 32.1 33.3 20.7 51 7.6 E 15 22 8 12 1013.6 - 0.0
17/11:00am 32.6 33.1 21.1 50 7.7 E 20 28 11 15 1013.8 - 0.0
17/10:30am 32.0 32.5 20.9 52 7.4 E 19 28 10 15 1013.9 - 0.0
17/10:00am 31.2 32.0 21.4 56 6.6 SE 19 24 10 13 1014.3 - 0.0
17/09:30am 30.7 31.0 21.5 58 6.2 SE 22 28 12 15 1014.3 - 0.0
17/09:00am 29.2 29.7 21.2 62 5.3 SE 20 30 11 16 1013.9 1013.8 0.0
17/08:30am 27.3 27.7 21.8 72 3.7 SSE 22 30 12 16 1013.8 - 0.0
17/08:00am 25.9 26.3 21.8 78 2.7 SSE 22 32 12 17 1013.5 - 0.0
17/07:30am 25.2 27.9 23.4 90 1.2 S 15 19 8 10 1013.1 - 0.0
17/07:00am 24.4 27.4 23.4 94 0.7 S 13 15 7 8 1013.0 - 0.0
17/06:30am 24.4 27.9 23.5 95 0.6 S 11 17 6 9 1012.8 - 0.0
17/06:00am 24.3 27.7 23.4 95 0.6 SSE 11 13 6 7 1012.4 1012.3 0.0
17/05:30am 24.3 27.7 23.4 95 0.6 SSE 11 13 6 7 1011.8 - 0.0
17/05:00am 24.1 27.0 23.2 95 0.6 S 13 15 7 8 1011.4 - 0.0
17/04:30am 24.1 27.8 23.2 95 0.6 S 9 11 5 6 1011.3 - 0.0
17/04:00am 24.2 28.3 23.2 94 0.7 S 7 11 4 6 1011.2 - 0.0
17/03:30am 24.4 28.6 23.4 94 0.7 SSE 7 9 4 5 1011.2 - 0.0
17/03:00am 24.6 28.9 23.6 94 0.7 S 7 7 4 4 1011.1 1011.0 0.0
17/02:30am 24.8 29.0 23.2 91 1.1 SE 6 7 3 4 1011.2 - 0.0
17/02:00am 25.2 29.4 23.4 90 1.2 ESE 7 7 4 4 1011.4 - 0.0
17/01:30am 25.3 29.7 23.5 90 1.2 E 6 7 3 4 1011.7 - 0.0
17/01:00am 25.2 29.5 23.3 89 1.3 ENE 6 7 3 4 1011.9 - 0.0
17/12:30am 25.9 30.0 23.0 84 2.0 ESE 6 9 3 5 1012.0 - 0.0
17/12:00am 26.1 31.2 23.4 85 1.8 NE 2 6 1 3 1012.1 1012.0 0.0
 
Date/Time
EST
Temp
°C
App
Temp
°C
Dew
Point
Rel
Hum
%
Delta-T
°C
Wind Press
QNH
hPa
Press
MSL
hPa
Rain
since 9 am
mm
Dir
 
Spd
km/h
Gust
km/h
Spd
kts
Gust
kts
16/11:30pm 26.1 31.6 23.4 85 1.8 CALM 0 0 0 0 1012.3 - 0.0
16/11:00pm 26.5 30.4 23.0 81 2.4 E 7 7 4 4 1012.2 - 0.0
16/10:30pm 26.8 30.5 22.6 78 2.8 E 7 7 4 4 1012.1 - 0.0
16/10:00pm 26.8 30.1 22.6 78 2.8 ENE 9 11 5 6 1012.1 - 0.0
16/09:30pm 26.8 30.1 22.6 78 2.8 ENE 9 11 5 6 1011.9 - 0.0
16/09:00pm 26.5 29.5 22.6 79 2.6 NNE 11 13 6 7 1011.5 1011.4 0.0
16/08:30pm 26.9 30.3 22.7 78 2.8 NNE 9 11 5 6 1011.2 - 0.0
16/08:00pm 27.3 31.3 23.1 78 2.9 NNE 7 9 4 5 1010.8 - 0.0
16/07:30pm 27.5 31.4 22.9 76 3.1 N 7 9 4 5 1010.3 - 0.0
16/07:00pm 28.0 31.5 22.9 74 3.5 NNE 9 11 5 6 1010.0 - 0.0
16/06:30pm 28.9 32.6 22.6 69 4.3 NNE 7 9 4 5 1009.9 - 0.0
16/06:00pm 29.6 33.3 22.6 66 4.8 NE 7 9 4 5 1009.7 1009.6 0.0
16/05:30pm 30.0 33.5 22.2 63 5.3 E 7 11 4 6 1009.8 - 0.0
16/05:00pm 30.6 34.3 22.5 62 5.5 ENE 7 11 4 6 1009.6 - 0.0

Other Formats:

Comma delimited format used in spreadsheet applications
http://www.bom.gov.au/fwo/IDQ60801/IDQ60801.94260.axf

JavaScript Object Notation format (JSON) in row-major order
http://www.bom.gov.au/fwo/IDQ60801/IDQ60801.94260.json